sensor_id;sensor_type;location;lat;lon;timestamp;pressure;altitude;pressure_sealevel;temperature
62611;BMP280;48683;48.084;17.272;2023-09-30T00:00:44;100803.56;;;15.13
62611;BMP280;48683;48.084;17.272;2023-09-30T00:03:09;100805.59;;;15.02
62611;BMP280;48683;48.084;17.272;2023-09-30T00:05:36;100815.28;;;15.00
62611;BMP280;48683;48.084;17.272;2023-09-30T00:08:02;100807.66;;;14.88
62611;BMP280;48683;48.084;17.272;2023-09-30T00:10:27;100814.13;;;15.01
62611;BMP280;48683;48.084;17.272;2023-09-30T00:12:53;100810.63;;;15.00
62611;BMP280;48683;48.084;17.272;2023-09-30T00:15:18;100800.88;;;15.10
62611;BMP280;48683;48.084;17.272;2023-09-30T00:17:43;100788.97;;;15.04
62611;BMP280;48683;48.084;17.272;2023-09-30T00:20:09;100785.94;;;14.98
62611;BMP280;48683;48.084;17.272;2023-09-30T00:22:34;100782.94;;;14.89
62611;BMP280;48683;48.084;17.272;2023-09-30T00:25:00;100783.69;;;14.93
62611;BMP280;48683;48.084;17.272;2023-09-30T00:27:25;100772.88;;;14.93
62611;BMP280;48683;48.084;17.272;2023-09-30T00:29:51;100780.66;;;14.84
62611;BMP280;48683;48.084;17.272;2023-09-30T00:32:16;100768.72;;;14.82
62611;BMP280;48683;48.084;17.272;2023-09-30T00:34:42;100769.03;;;14.87
62611;BMP280;48683;48.084;17.272;2023-09-30T00:37:08;100765.59;;;14.83
62611;BMP280;48683;48.084;17.272;2023-09-30T00:39:33;100780.28;;;14.86
62611;BMP280;48683;48.084;17.272;2023-09-30T00:41:58;100773.25;;;14.92
62611;BMP280;48683;48.084;17.272;2023-09-30T00:44:25;100775.63;;;14.86
62611;BMP280;48683;48.084;17.272;2023-09-30T00:46:52;100772.13;;;14.89
62611;BMP280;48683;48.084;17.272;2023-09-30T00:49:18;100770.97;;;14.87
62611;BMP280;48683;48.084;17.272;2023-09-30T00:51:44;100771.50;;;14.75
62611;BMP280;48683;48.084;17.272;2023-09-30T00:54:10;100779.56;;;14.78
62611;BMP280;48683;48.084;17.272;2023-09-30T00:56:42;100780.31;;;14.79
62611;BMP280;48683;48.084;17.272;2023-09-30T00:59:08;100768.09;;;14.63
62611;BMP280;48683;48.084;17.272;2023-09-30T01:01:34;100778.44;;;14.72
62611;BMP280;48683;48.084;17.272;2023-09-30T01:04:00;100767.34;;;14.59
62611;BMP280;48683;48.084;17.272;2023-09-30T01:06:25;100775.13;;;14.54
62611;BMP280;48683;48.084;17.272;2023-09-30T01:08:52;100779.00;;;14.53
62611;BMP280;48683;48.084;17.272;2023-09-30T01:11:17;100790.19;;;14.51
62611;BMP280;48683;48.084;17.272;2023-09-30T01:13:43;100788.28;;;14.48
62611;BMP280;48683;48.084;17.272;2023-09-30T01:16:10;100785.59;;;14.45
62611;BMP280;48683;48.084;17.272;2023-09-30T01:18:37;100791.38;;;14.50
62611;BMP280;48683;48.084;17.272;2023-09-30T01:21:04;100787.94;;;14.43
62611;BMP280;48683;48.084;17.272;2023-09-30T01:23:30;100794.41;;;14.52
62611;BMP280;48683;48.084;17.272;2023-09-30T01:25:56;100790.97;;;14.48
62611;BMP280;48683;48.084;17.272;2023-09-30T01:28:21;100794.09;;;14.47
62611;BMP280;48683;48.084;17.272;2023-09-30T01:30:48;100799.53;;;14.40
62611;BMP280;48683;48.084;17.272;2023-09-30T01:33:13;100807.63;;;14.43
62611;BMP280;48683;48.084;17.272;2023-09-30T01:35:39;100808.00;;;14.42
62611;BMP280;48683;48.084;17.272;2023-09-30T01:38:04;100808.38;;;14.44
62611;BMP280;48683;48.084;17.272;2023-09-30T01:40:30;100800.78;;;14.21
62611;BMP280;48683;48.084;17.272;2023-09-30T01:42:56;100805.41;;;14.20
62611;BMP280;48683;48.084;17.272;2023-09-30T01:45:21;100803.88;;;14.23
62611;BMP280;48683;48.084;17.272;2023-09-30T01:47:47;100799.28;;;14.13
62611;BMP280;48683;48.084;17.272;2023-09-30T01:50:12;100798.13;;;14.14
62611;BMP280;48683;48.084;17.272;2023-09-30T01:52:38;100802.28;;;14.29
62611;BMP280;48683;48.084;17.272;2023-09-30T01:55:03;100801.50;;;14.28
62611;BMP280;48683;48.084;17.272;2023-09-30T01:57:29;100796.53;;;14.23
62611;BMP280;48683;48.084;17.272;2023-09-30T01:59:54;100795.00;;;14.19
62611;BMP280;48683;48.084;17.272;2023-09-30T02:02:20;100799.28;;;14.13
62611;BMP280;48683;48.084;17.272;2023-09-30T02:04:45;100791.59;;;14.11
62611;BMP280;48683;48.084;17.272;2023-09-30T02:07:10;100794.66;;;14.13
62611;BMP280;48683;48.084;17.272;2023-09-30T02:09:36;100787.31;;;14.17
62611;BMP280;48683;48.084;17.272;2023-09-30T02:12:01;100793.09;;;14.16
62611;BMP280;48683;48.084;17.272;2023-09-30T02:14:27;100793.16;;;14.05
62611;BMP280;48683;48.084;17.272;2023-09-30T02:16:52;100808.53;;;14.15
62611;BMP280;48683;48.084;17.272;2023-09-30T02:19:19;100805.78;;;14.22
62611;BMP280;48683;48.084;17.272;2023-09-30T02:21:44;100801.53;;;14.21
62611;BMP280;48683;48.084;17.272;2023-09-30T02:24:10;100801.13;;;14.26
62611;BMP280;48683;48.084;17.272;2023-09-30T02:26:35;100797.69;;;14.22
62611;BMP280;48683;48.084;17.272;2023-09-30T02:29:01;100807.28;;;14.31
62611;BMP280;48683;48.084;17.272;2023-09-30T02:31:26;100794.56;;;14.24
62611;BMP280;48683;48.084;17.272;2023-09-30T02:33:51;100802.69;;;14.24
62611;BMP280;48683;48.084;17.272;2023-09-30T02:36:17;100800.72;;;14.28
62611;BMP280;48683;48.084;17.272;2023-09-30T02:38:42;100805.00;;;14.25
62611;BMP280;48683;48.084;17.272;2023-09-30T02:41:08;100795.00;;;14.19
62611;BMP280;48683;48.084;17.272;2023-09-30T02:43:34;100803.44;;;14.32
62611;BMP280;48683;48.084;17.272;2023-09-30T02:45:59;100799.97;;;14.27
62611;BMP280;48683;48.084;17.272;2023-09-30T02:48:24;100808.06;;;14.24
62611;BMP280;48683;48.084;17.272;2023-09-30T02:50:50;100812.66;;;14.34
62611;BMP280;48683;48.084;17.272;2023-09-30T02:53:15;100815.72;;;14.40
62611;BMP280;48683;48.084;17.272;2023-09-30T02:55:41;100810.75;;;14.35
62611;BMP280;48683;48.084;17.272;2023-09-30T02:58:10;100816.53;;;14.33
62611;BMP280;48683;48.084;17.272;2023-09-30T03:00:35;100822.28;;;14.42
62611;BMP280;48683;48.084;17.272;2023-09-30T03:03:03;100823.47;;;14.38
62611;BMP280;48683;48.084;17.272;2023-09-30T03:05:28;100821.16;;;14.33
62611;BMP280;48683;48.084;17.272;2023-09-30T03:07:57;100818.84;;;14.31
62611;BMP280;48683;48.084;17.272;2023-09-30T03:10:22;100818.44;;;14.33
62611;BMP280;48683;48.084;17.272;2023-09-30T03:12:55;100823.84;;;14.33
62611;BMP280;48683;48.084;17.272;2023-09-30T03:15:21;100825.41;;;14.30
62611;BMP280;48683;48.084;17.272;2023-09-30T03:17:47;100816.19;;;14.24
62611;BMP280;48683;48.084;17.272;2023-09-30T03:20:14;100825.88;;;14.18
62611;BMP280;48683;48.084;17.272;2023-09-30T03:22:41;100817.38;;;14.23
62611;BMP280;48683;48.084;17.272;2023-09-30T03:25:07;100811.91;;;14.30
62611;BMP280;48683;48.084;17.272;2023-09-30T03:27:34;100823.06;;;14.32
62611;BMP280;48683;48.084;17.272;2023-09-30T03:29:59;100812.28;;;14.28
62611;BMP280;48683;48.084;17.272;2023-09-30T03:32:26;100811.94;;;14.26
62611;BMP280;48683;48.084;17.272;2023-09-30T03:34:53;100819.63;;;14.32
62611;BMP280;48683;48.084;17.272;2023-09-30T03:37:18;100830.44;;;14.32
62611;BMP280;48683;48.084;17.272;2023-09-30T03:39:43;100821.97;;;14.26
62611;BMP280;48683;48.084;17.272;2023-09-30T03:42:09;100820.84;;;14.23
62611;BMP280;48683;48.084;17.272;2023-09-30T03:44:37;100823.84;;;14.36
62611;BMP280;48683;48.084;17.272;2023-09-30T03:47:03;100830.75;;;14.44
62611;BMP280;48683;48.084;17.272;2023-09-30T03:49:28;100830.38;;;14.46
62611;BMP280;48683;48.084;17.272;2023-09-30T03:51:54;100832.28;;;14.49
62611;BMP280;48683;48.084;17.272;2023-09-30T03:54:19;100823.72;;;14.57
62611;BMP280;48683;48.084;17.272;2023-09-30T03:56:45;100825.66;;;14.57
62611;BMP280;48683;48.084;17.272;2023-09-30T03:59:11;100821.03;;;14.57
62611;BMP280;48683;48.084;17.272;2023-09-30T04:01:37;100830.25;;;14.60
62611;BMP280;48683;48.084;17.272;2023-09-30T04:04:06;100829.91;;;14.58
62611;BMP280;48683;48.084;17.272;2023-09-30T04:06:32;100837.56;;;14.63
62611;BMP280;48683;48.084;17.272;2023-09-30T04:08:57;100838.06;;;14.51
62611;BMP280;48683;48.084;17.272;2023-09-30T04:11:24;100839.88;;;14.64
62611;BMP280;48683;48.084;17.272;2023-09-30T04:13:49;100837.16;;;14.68
62611;BMP280;48683;48.084;17.272;2023-09-30T04:16:16;100838.63;;;14.76
62611;BMP280;48683;48.084;17.272;2023-09-30T04:18:44;100833.97;;;14.80
62611;BMP280;48683;48.084;17.272;2023-09-30T04:21:09;100835.13;;;14.79
62611;BMP280;48683;48.084;17.272;2023-09-30T04:23:34;100839.75;;;14.82
62611;BMP280;48683;48.084;17.272;2023-09-30T04:26:03;100837.41;;;14.84
62611;BMP280;48683;48.084;17.272;2023-09-30T04:28:29;100839.38;;;14.80
62611;BMP280;48683;48.084;17.272;2023-09-30T04:30:55;100846.75;;;14.76
62611;BMP280;48683;48.084;17.272;2023-09-30T04:33:21;100851.00;;;14.77
62611;BMP280;48683;48.084;17.272;2023-09-30T04:35:49;100846.72;;;14.80
62611;BMP280;48683;48.084;17.272;2023-09-30T04:38:15;100850.16;;;14.84
62611;BMP280;48683;48.084;17.272;2023-09-30T04:40:40;100853.63;;;14.84
62611;BMP280;48683;48.084;17.272;2023-09-30T04:43:06;100854.00;;;14.90
62611;BMP280;48683;48.084;17.272;2023-09-30T04:45:31;100863.25;;;14.89
62611;BMP280;48683;48.084;17.272;2023-09-30T04:47:58;100864.38;;;14.91
62611;BMP280;48683;48.084;17.272;2023-09-30T04:50:23;100865.94;;;14.92
62611;BMP280;48683;48.084;17.272;2023-09-30T04:52:50;100882.13;;;14.96
62611;BMP280;48683;48.084;17.272;2023-09-30T04:55:16;100883.69;;;14.93
62611;BMP280;48683;48.084;17.272;2023-09-30T04:57:42;100867.50;;;14.90
62611;BMP280;48683;48.084;17.272;2023-09-30T05:00:15;100888.22;;;15.07
62611;BMP280;48683;48.084;17.272;2023-09-30T05:02:42;100887.06;;;15.08
62611;BMP280;48683;48.084;17.272;2023-09-30T05:05:08;100900.13;;;15.16
62611;BMP280;48683;48.084;17.272;2023-09-30T05:07:33;100902.13;;;15.09
62611;BMP280;48683;48.084;17.272;2023-09-30T05:09:59;100902.38;;;15.21
62611;BMP280;48683;48.084;17.272;2023-09-30T05:12:25;100901.63;;;15.17
62611;BMP280;48683;48.084;17.272;2023-09-30T05:14:50;100906.63;;;15.23
62611;BMP280;48683;48.084;17.272;2023-09-30T05:17:16;100912.00;;;15.26
62611;BMP280;48683;48.084;17.272;2023-09-30T05:19:41;100916.19;;;15.34
62611;BMP280;48683;48.084;17.272;2023-09-30T05:22:06;100908.94;;;15.24
62611;BMP280;48683;48.084;17.272;2023-09-30T05:24:32;100919.72;;;15.28
62611;BMP280;48683;48.084;17.272;2023-09-30T05:26:58;100924.28;;;15.34
62611;BMP280;48683;48.084;17.272;2023-09-30T05:29:23;100927.34;;;15.40
62611;BMP280;48683;48.084;17.272;2023-09-30T05:31:48;100932.38;;;15.38
62611;BMP280;48683;48.084;17.272;2023-09-30T05:34:14;100928.53;;;15.35
62611;BMP280;48683;48.084;17.272;2023-09-30T05:36:39;100935.06;;;15.41
62611;BMP280;48683;48.084;17.272;2023-09-30T05:39:05;100935.44;;;15.43
62611;BMP280;48683;48.084;17.272;2023-09-30T05:41:33;100938.97;;;15.37
62611;BMP280;48683;48.084;17.272;2023-09-30T05:43:58;100941.19;;;15.52
62611;BMP280;48683;48.084;17.272;2023-09-30T05:46:25;100955.44;;;15.56
62611;BMP280;48683;48.084;17.272;2023-09-30T05:48:50;100953.03;;;15.65
62611;BMP280;48683;48.084;17.272;2023-09-30T05:51:16;100956.47;;;15.70
62611;BMP280;48683;48.084;17.272;2023-09-30T05:53:42;100968.84;;;15.71
62611;BMP280;48683;48.084;17.272;2023-09-30T05:56:07;100966.09;;;15.74
62611;BMP280;48683;48.084;17.272;2023-09-30T05:58:33;100964.09;;;15.82
62611;BMP280;48683;48.084;17.272;2023-09-30T06:00:58;100958.72;;;15.78
62611;BMP280;48683;48.084;17.272;2023-09-30T06:03:25;100971.81;;;15.83
62611;BMP280;48683;48.084;17.272;2023-09-30T06:05:50;100965.22;;;15.84
62611;BMP280;48683;48.084;17.272;2023-09-30T06:08:16;100959.41;;;15.86
62611;BMP280;48683;48.084;17.272;2023-09-30T06:10:42;100969.38;;;15.92
62611;BMP280;48683;48.084;17.272;2023-09-30T06:13:11;100966.97;;;16.01
62611;BMP280;48683;48.084;17.272;2023-09-30T06:15:41;100963.09;;;16.02
62611;BMP280;48683;48.084;17.272;2023-09-30T06:18:07;100965.72;;;16.09
62611;BMP280;48683;48.084;17.272;2023-09-30T06:20:32;100960.66;;;16.11
62611;BMP280;48683;48.084;17.272;2023-09-30T06:22:59;100967.25;;;16.14
62611;BMP280;48683;48.084;17.272;2023-09-30T06:25:25;100963.28;;;16.19
62611;BMP280;48683;48.084;17.272;2023-09-30T06:27:53;100966.34;;;16.24
62611;BMP280;48683;48.084;17.272;2023-09-30T06:30:19;100979.47;;;16.26
62611;BMP280;48683;48.084;17.272;2023-09-30T06:32:46;100978.22;;;16.34
62611;BMP280;48683;48.084;17.272;2023-09-30T06:35:11;100970.53;;;16.29
62611;BMP280;48683;48.084;17.272;2023-09-30T06:37:38;100964.22;;;16.39
62611;BMP280;48683;48.084;17.272;2023-09-30T06:40:08;100979.25;;;16.43
62611;BMP280;48683;48.084;17.272;2023-09-30T06:42:35;100972.97;;;16.50
62611;BMP280;48683;48.084;17.272;2023-09-30T06:45:01;100972.16;;;16.56
62611;BMP280;48683;48.084;17.272;2023-09-30T06:47:31;100968.47;;;16.70
62611;BMP280;48683;48.084;17.272;2023-09-30T06:49:59;100975.19;;;16.89
62611;BMP280;48683;48.084;17.272;2023-09-30T06:52:25;100977.81;;;16.96
62611;BMP280;48683;48.084;17.272;2023-09-30T06:54:50;100958.88;;;16.92
62611;BMP280;48683;48.084;17.272;2023-09-30T06:57:17;100976.53;;;17.04
62611;BMP280;48683;48.084;17.272;2023-09-30T06:59:42;100984.69;;;17.04
62611;BMP280;48683;48.084;17.272;2023-09-30T07:02:08;100987.69;;;17.09
62611;BMP280;48683;48.084;17.272;2023-09-30T07:04:33;100988.78;;;17.16
62611;BMP280;48683;48.084;17.272;2023-09-30T07:06:58;100982.50;;;17.19
62611;BMP280;48683;48.084;17.272;2023-09-30T07:09:24;100989.81;;;17.22
62611;BMP280;48683;48.084;17.272;2023-09-30T07:11:49;100988.94;;;17.28
62611;BMP280;48683;48.084;17.272;2023-09-30T07:14:14;100993.91;;;17.33
62611;BMP280;48683;48.084;17.272;2023-09-30T07:16:40;100998.03;;;17.41
62611;BMP280;48683;48.084;17.272;2023-09-30T07:19:05;101001.41;;;17.49
62611;BMP280;48683;48.084;17.272;2023-09-30T07:21:31;100995.09;;;17.55
62611;BMP280;48683;48.084;17.272;2023-09-30T07:23:56;100998.91;;;17.62
62611;BMP280;48683;48.084;17.272;2023-09-30T07:26:25;101008.41;;;17.73
62611;BMP280;48683;48.084;17.272;2023-09-30T07:28:51;101010.22;;;17.80
62611;BMP280;48683;48.084;17.272;2023-09-30T07:31:16;101002.72;;;17.87
62611;BMP280;48683;48.084;17.272;2023-09-30T07:33:42;101004.81;;;17.99
62611;BMP280;48683;48.084;17.272;2023-09-30T07:36:07;101004.34;;;18.05
62611;BMP280;48683;48.084;17.272;2023-09-30T07:38:32;101010.88;;;18.07
62611;BMP280;48683;48.084;17.272;2023-09-30T07:41:00;101020.78;;;18.17
62611;BMP280;48683;48.084;17.272;2023-09-30T07:43:25;101009.03;;;18.24
62611;BMP280;48683;48.084;17.272;2023-09-30T07:45:51;101004.28;;;18.28
62611;BMP280;48683;48.084;17.272;2023-09-30T07:48:17;101009.91;;;18.37
62611;BMP280;48683;48.084;17.272;2023-09-30T07:50:42;101005.25;;;18.37
62611;BMP280;48683;48.084;17.272;2023-09-30T07:53:08;100998.91;;;18.44
62611;BMP280;48683;48.084;17.272;2023-09-30T07:55:33;100999.63;;;18.48
62611;BMP280;48683;48.084;17.272;2023-09-30T07:57:58;100998.78;;;18.51
62611;BMP280;48683;48.084;17.272;2023-09-30T08:00:25;100994.84;;;18.56
62611;BMP280;48683;48.084;17.272;2023-09-30T08:02:50;100990.00;;;18.63
62611;BMP280;48683;48.084;17.272;2023-09-30T08:05:16;101001.34;;;18.78
62611;BMP280;48683;48.084;17.272;2023-09-30T08:07:42;101008.50;;;18.88
62611;BMP280;48683;48.084;17.272;2023-09-30T08:10:07;101006.38;;;18.95
62611;BMP280;48683;48.084;17.272;2023-09-30T08:12:38;100993.22;;;19.10
62611;BMP280;48683;48.084;17.272;2023-09-30T08:15:03;101005.31;;;19.25
62611;BMP280;48683;48.084;17.272;2023-09-30T08:17:31;101001.97;;;19.34
62611;BMP280;48683;48.084;17.272;2023-09-30T08:19:57;101003.72;;;19.44
62611;BMP280;48683;48.084;17.272;2023-09-30T08:22:23;100999.88;;;19.58
62611;BMP280;48683;48.084;17.272;2023-09-30T08:24:52;100992.19;;;19.69
62611;BMP280;48683;48.084;17.272;2023-09-30T08:27:18;101007.16;;;19.77
62611;BMP280;48683;48.084;17.272;2023-09-30T08:29:43;101001.63;;;19.80
62611;BMP280;48683;48.084;17.272;2023-09-30T08:32:09;100991.91;;;19.96
62611;BMP280;48683;48.084;17.272;2023-09-30T08:34:35;100997.56;;;20.01
62611;BMP280;48683;48.084;17.272;2023-09-30T08:37:00;100997.53;;;20.17
62611;BMP280;48683;48.084;17.272;2023-09-30T08:39:27;100994.13;;;20.13
62611;BMP280;48683;48.084;17.272;2023-09-30T08:41:52;100996.84;;;20.29
62611;BMP280;48683;48.084;17.272;2023-09-30T08:44:20;100986.50;;;20.37
62611;BMP280;48683;48.084;17.272;2023-09-30T08:46:46;100977.22;;;20.47
62611;BMP280;48683;48.084;17.272;2023-09-30T08:49:13;100982.25;;;20.49
62611;BMP280;48683;48.084;17.272;2023-09-30T08:51:40;100979.75;;;20.67
62611;BMP280;48683;48.084;17.272;2023-09-30T08:54:05;100980.19;;;20.78
62611;BMP280;48683;48.084;17.272;2023-09-30T08:56:32;100981.41;;;20.90
62611;BMP280;48683;48.084;17.272;2023-09-30T08:59:01;100985.66;;;20.91
62611;BMP280;48683;48.084;17.272;2023-09-30T09:01:28;100980.09;;;20.94
62611;BMP280;48683;48.084;17.272;2023-09-30T09:03:54;100977.38;;;21.07
62611;BMP280;48683;48.084;17.272;2023-09-30T09:06:24;100982.91;;;21.28
62611;BMP280;48683;48.084;17.272;2023-09-30T09:08:50;100991.44;;;21.43
62611;BMP280;48683;48.084;17.272;2023-09-30T09:11:16;100984.16;;;21.62
62611;BMP280;48683;48.084;17.272;2023-09-30T09:13:50;100989.13;;;21.76
62611;BMP280;48683;48.084;17.272;2023-09-30T09:16:18;100984.41;;;21.89
62611;BMP280;48683;48.084;17.272;2023-09-30T09:18:44;100978.91;;;22.02
62611;BMP280;48683;48.084;17.272;2023-09-30T09:21:22;100981.66;;;21.89
62611;BMP280;48683;48.084;17.272;2023-09-30T09:23:50;100974.34;;;21.86
62611;BMP280;48683;48.084;17.272;2023-09-30T09:26:29;100969.03;;;22.04
62611;BMP280;48683;48.084;17.272;2023-09-30T09:29:00;100967.13;;;22.14
62611;BMP280;48683;48.084;17.272;2023-09-30T09:31:35;100968.16;;;22.07
62611;BMP280;48683;48.084;17.272;2023-09-30T09:34:12;100963.31;;;22.11
62611;BMP280;48683;48.084;17.272;2023-09-30T09:36:42;100961.91;;;22.07
62611;BMP280;48683;48.084;17.272;2023-09-30T09:39:09;100954.19;;;22.05
62611;BMP280;48683;48.084;17.272;2023-09-30T09:44:17;100949.88;;;22.26
62611;BMP280;48683;48.084;17.272;2023-09-30T09:46:45;100947.34;;;22.32
62611;BMP280;48683;48.084;17.272;2023-09-30T09:49:11;100950.72;;;22.36
62611;BMP280;48683;48.084;17.272;2023-09-30T09:51:37;100947.28;;;22.22
62611;BMP280;48683;48.084;17.272;2023-09-30T09:54:04;100945.78;;;22.21
62611;BMP280;48683;48.084;17.272;2023-09-30T09:56:33;100941.66;;;22.17
62611;BMP280;48683;48.084;17.272;2023-09-30T09:59:01;100939.53;;;22.21
62611;BMP280;48683;48.084;17.272;2023-09-30T10:01:30;100940.91;;;22.25
62611;BMP280;48683;48.084;17.272;2023-09-30T10:03:56;100943.22;;;22.27
62611;BMP280;48683;48.084;17.272;2023-09-30T10:06:22;100938.91;;;22.17
62611;BMP280;48683;48.084;17.272;2023-09-30T10:08:49;100933.44;;;22.17
62611;BMP280;48683;48.084;17.272;2023-09-30T10:11:17;100945.59;;;22.16
62611;BMP280;48683;48.084;17.272;2023-09-30T10:13:56;100938.72;;;22.11
62611;BMP280;48683;48.084;17.272;2023-09-30T10:19:10;100943.16;;;22.18
62611;BMP280;48683;48.084;17.272;2023-09-30T10:21:36;100945.94;;;22.27
62611;BMP280;48683;48.084;17.272;2023-09-30T10:40:48;100926.72;;;22.70
62611;BMP280;48683;48.084;17.272;2023-09-30T10:43:29;100936.25;;;22.66
62611;BMP280;48683;48.084;17.272;2023-09-30T10:45:56;100925.31;;;22.66
62611;BMP280;48683;48.084;17.272;2023-09-30T10:48:32;100927.75;;;22.64
62611;BMP280;48683;48.084;17.272;2023-09-30T10:50:59;100940.69;;;22.73
62611;BMP280;48683;48.084;17.272;2023-09-30T10:53:25;100930.84;;;22.75
62611;BMP280;48683;48.084;17.272;2023-09-30T10:55:56;100944.91;;;22.64
62611;BMP280;48683;48.084;17.272;2023-09-30T10:58:38;100941.38;;;22.55
62611;BMP280;48683;48.084;17.272;2023-09-30T11:01:04;100937.53;;;22.43
62611;BMP280;48683;48.084;17.272;2023-09-30T11:03:29;100945.81;;;22.31
62611;BMP280;48683;48.084;17.272;2023-09-30T11:05:55;100936.22;;;22.26
62611;BMP280;48683;48.084;17.272;2023-09-30T11:08:21;100938.19;;;22.25
62611;BMP280;48683;48.084;17.272;2023-09-30T11:10:50;100929.09;;;22.29
62611;BMP280;48683;48.084;17.272;2023-09-30T11:13:17;100944.56;;;22.53
62611;BMP280;48683;48.084;17.272;2023-09-30T11:15:44;100938.66;;;22.55
62611;BMP280;48683;48.084;17.272;2023-09-30T11:18:16;100935.00;;;22.58
62611;BMP280;48683;48.084;17.272;2023-09-30T11:20:42;100930.00;;;22.65
62611;BMP280;48683;48.084;17.272;2023-09-30T11:23:08;100922.56;;;22.66
62611;BMP280;48683;48.084;17.272;2023-09-30T11:25:35;100927.78;;;22.73
62611;BMP280;48683;48.084;17.272;2023-09-30T11:28:15;100921.00;;;22.87
62611;BMP280;48683;48.084;17.272;2023-09-30T11:33:22;100926.16;;;22.85
62611;BMP280;48683;48.084;17.272;2023-09-30T11:36:03;100936.94;;;22.88
62611;BMP280;48683;48.084;17.272;2023-09-30T11:38:31;100927.72;;;23.04
62611;BMP280;48683;48.084;17.272;2023-09-30T11:41:04;100927.75;;;23.13
62611;BMP280;48683;48.084;17.272;2023-09-30T11:43:32;100921.78;;;22.96
62611;BMP280;48683;48.084;17.272;2023-09-30T11:46:07;100919.19;;;22.84
62611;BMP280;48683;48.084;17.272;2023-09-30T11:48:34;100914.13;;;22.82
62611;BMP280;48683;48.084;17.272;2023-09-30T11:51:01;100915.38;;;22.90
62611;BMP280;48683;48.084;17.272;2023-09-30T11:53:29;100917.66;;;22.92
62611;BMP280;48683;48.084;17.272;2023-09-30T11:55:59;100916.78;;;23.13
62611;BMP280;48683;48.084;17.272;2023-09-30T11:58:32;100919.41;;;23.26
62611;BMP280;48683;48.084;17.272;2023-09-30T12:00:59;100917.72;;;23.28
62611;BMP280;48683;48.084;17.272;2023-09-30T12:03:27;100916.66;;;23.26
62611;BMP280;48683;48.084;17.272;2023-09-30T12:05:55;100910.44;;;23.34
62611;BMP280;48683;48.084;17.272;2023-09-30T12:08:22;100908.94;;;23.60
62611;BMP280;48683;48.084;17.272;2023-09-30T12:10:48;100904.19;;;23.70
62611;BMP280;48683;48.084;17.272;2023-09-30T12:13:14;100899.19;;;23.59
62611;BMP280;48683;48.084;17.272;2023-09-30T12:15:40;100902.66;;;23.78
62611;BMP280;48683;48.084;17.272;2023-09-30T12:18:06;100912.72;;;23.81
62611;BMP280;48683;48.084;17.272;2023-09-30T12:20:31;100904.34;;;23.76
62611;BMP280;48683;48.084;17.272;2023-09-30T12:22:56;100905.25;;;23.82
62611;BMP280;48683;48.084;17.272;2023-09-30T12:25:22;100897.19;;;23.87
62611;BMP280;48683;48.084;17.272;2023-09-30T12:27:48;100909.69;;;23.79
62611;BMP280;48683;48.084;17.272;2023-09-30T12:30:14;100899.16;;;23.78
62611;BMP280;48683;48.084;17.272;2023-09-30T12:32:40;100904.47;;;23.81
62611;BMP280;48683;48.084;17.272;2023-09-30T12:35:06;100892.34;;;23.55
62611;BMP280;48683;48.084;17.272;2023-09-30T12:37:31;100882.31;;;23.52
62611;BMP280;48683;48.084;17.272;2023-09-30T12:39:57;100891.28;;;23.52
62611;BMP280;48683;48.084;17.272;2023-09-30T12:42:23;100893.25;;;23.52
62611;BMP280;48683;48.084;17.272;2023-09-30T12:44:48;100895.41;;;23.57
62611;BMP280;48683;48.084;17.272;2023-09-30T12:47:14;100893.25;;;23.61
62611;BMP280;48683;48.084;17.272;2023-09-30T12:49:39;100895.84;;;23.55
62611;BMP280;48683;48.084;17.272;2023-09-30T12:52:04;100898.84;;;23.39
62611;BMP280;48683;48.084;17.272;2023-09-30T12:54:30;100900.09;;;23.38
62611;BMP280;48683;48.084;17.272;2023-09-30T12:56:55;100890.19;;;23.23
62611;BMP280;48683;48.084;17.272;2023-09-30T12:59:21;100896.41;;;23.23
62611;BMP280;48683;48.084;17.272;2023-09-30T13:01:50;100901.44;;;23.25
62611;BMP280;48683;48.084;17.272;2023-09-30T13:04:16;100889.84;;;23.11
62611;BMP280;48683;48.084;17.272;2023-09-30T13:06:41;100899.47;;;23.07
62611;BMP280;48683;48.084;17.272;2023-09-30T13:09:06;100902.03;;;23.10
62611;BMP280;48683;48.084;17.272;2023-09-30T13:11:33;100901.16;;;23.23
62611;BMP280;48683;48.084;17.272;2023-09-30T13:13:59;100903.72;;;23.26
62611;BMP280;48683;48.084;17.272;2023-09-30T13:16:24;100895.78;;;23.19
62611;BMP280;48683;48.084;17.272;2023-09-30T13:18:50;100892.59;;;23.02
62611;BMP280;48683;48.084;17.272;2023-09-30T13:21:18;100899.28;;;23.01
62611;BMP280;48683;48.084;17.272;2023-09-30T13:23:43;100901.84;;;22.96
62611;BMP280;48683;48.084;17.272;2023-09-30T13:26:09;100898.22;;;23.08
62611;BMP280;48683;48.084;17.272;2023-09-30T13:28:35;100903.69;;;23.08
62611;BMP280;48683;48.084;17.272;2023-09-30T13:31:00;100892.88;;;23.04
62611;BMP280;48683;48.084;17.272;2023-09-30T13:33:25;100902.03;;;23.01
62611;BMP280;48683;48.084;17.272;2023-09-30T13:35:51;100896.84;;;23.03
62611;BMP280;48683;48.084;17.272;2023-09-30T13:38:17;100904.78;;;23.10
62611;BMP280;48683;48.084;17.272;2023-09-30T13:40:42;100900.38;;;23.13
62611;BMP280;48683;48.084;17.272;2023-09-30T13:43:07;100892.59;;;23.11
62611;BMP280;48683;48.084;17.272;2023-09-30T13:45:33;100893.06;;;23.19
62611;BMP280;48683;48.084;17.272;2023-09-30T13:47:59;100888.34;;;23.19
62611;BMP280;48683;48.084;17.272;2023-09-30T13:50:25;100892.16;;;23.22
62611;BMP280;48683;48.084;17.272;2023-09-30T13:52:50;100899.63;;;23.22
62611;BMP280;48683;48.084;17.272;2023-09-30T13:55:15;100901.13;;;23.13
62611;BMP280;48683;48.084;17.272;2023-09-30T13:57:45;100900.06;;;23.11
62611;BMP280;48683;48.084;17.272;2023-09-30T14:00:11;100896.84;;;23.03
62611;BMP280;48683;48.084;17.272;2023-09-30T14:02:37;100897.28;;;22.93
62611;BMP280;48683;48.084;17.272;2023-09-30T14:05:04;100899.41;;;22.80